Snag Island, Washington
Current Conditions -  °F | °C
As of 6:38 AM on Friday 24 Oct 2014 (Local Time) from KTCM Reporting Station
Haze Haze  
Wind Chill: 45°   Ceiling: Unl
Heat Index: 45°   Visibility: 1.5mi
Dew Point: 45°   Wind: 0mph
Humidity: 100%   Direction: NA
Pressure: 30.02"   Gusts: NA
Location:  47.1874°N, 122.164°W
Report Text: KTCM 241338Z AUTO 00000KT 1 1/2SM R16/3500FT BR CLR 07/07 A3002 RMK AO2 VIS 1 1/2V4 $
Loading
Personal Weather Stations






























Interactive Weather Map
Tropical Storm Tracking
New forecast layout! Learn more

10-Day Weather Forecast

Advertisements
Track Severe Weather on mobile